Time;durP1;ratioP1;P1;durP2;ratioP2;P2;SDS_P1;SDS_P2;PMS_P1;PMS_P2;Temp;Humidity;BMP_temperature;BMP_pressure;BME280_temperature;BME280_humidity;BME280_pressure;Samples;Min_cycle;Max_cycle;Signal;HPM_P1;HPM_P2
2023/04/22 00:01:04;;;;;;;;;;;;;;;5.97;100.00;100843.28;4950294;28;20111;-73
2023/04/22 00:03:29;;;;;;;;;;;;;;;5.93;100.00;100837.28;4931544;28;19934;-73
2023/04/22 00:05:55;;;;;;;;;;;;;;;5.96;100.00;100836.22;4950697;28;19922;-73
2023/04/22 00:08:20;;;;;;;;;;;;;;;5.99;100.00;100844.88;4945276;28;19922;-73
2023/04/22 00:10:45;;;;;;;;;;;;;;;5.95;100.00;100835.38;4954728;28;20367;-73
2023/04/22 00:13:10;;;;;;;;;;;;;;;5.84;100.00;100832.47;4951011;28;19929;-73
2023/04/22 00:15:36;;;;;;;;;;;;;;;5.71;100.00;100842.97;4950994;28;19922;-73
2023/04/22 00:18:01;;;;;;;;;;;;;;;5.48;100.00;100839.81;4947982;28;20328;-72
2023/04/22 00:20:26;;;;;;;;;;;;;;;5.46;100.00;100825.72;4947549;28;19968;-73
2023/04/22 00:22:51;;;;;;;;;;;;;;;5.55;100.00;100830.56;4951528;28;19928;-73
2023/04/22 00:25:17;;;;;;;;;;;;;;;5.60;100.00;100830.28;4953234;28;19954;-72
2023/04/22 00:27:43;;;;;;;;;;;;;;;5.34;100.00;100824.63;4953227;28;19949;-73
2023/04/22 00:30:09;;;;;;;;;;;;;;;5.20;100.00;100822.72;4950477;28;19922;-73
2023/04/22 00:32:34;;;;;;;;;;;;;;;5.16;100.00;100826.50;4951070;28;19993;-73
2023/04/22 00:34:59;;;;;;;;;;;;;;;5.16;100.00;100825.66;4951726;28;20440;-73
2023/04/22 00:37:24;;;;;;;;;;;;;;;5.09;100.00;100827.78;4953107;28;19929;-73
2023/04/22 00:39:50;;;;;;;;;;;;;;;5.15;100.00;100823.94;4952560;28;19966;-73
2023/04/22 00:42:15;;;;;;;;;;;;;;;5.15;100.00;100818.63;4951162;28;20489;-73
2023/04/22 00:44:41;;;;;;;;;;;;;;;5.22;100.00;100826.16;4951214;28;20483;-73
2023/04/22 00:47:06;;;;;;;;;;;;;;;5.33;100.00;100822.91;4951551;28;19929;-73
2023/04/22 00:49:31;;;;;;;;;;;;;;;5.46;100.00;100824.84;4950567;28;19957;-73
2023/04/22 00:51:56;;;;;;;;;;;;;;;5.48;100.00;100822.97;4952230;28;19968;-73
2023/04/22 00:54:22;;;;;;;;;;;;;;;5.65;100.00;100824.69;4947813;28;19926;-73
2023/04/22 00:56:47;;;;;;;;;;;;;;;5.74;100.00;100820.63;4952543;28;19922;-73
2023/04/22 00:59:12;;;;;;;;;;;;;;;5.80;100.00;100820.28;4919247;28;20006;-73
2023/04/22 01:01:37;;;;;;;;;;;;;;;5.76;100.00;100816.06;4952251;28;19968;-73
2023/04/22 01:04:03;;;;;;;;;;;;;;;5.82;100.00;100813.03;4951497;28;20012;-73
2023/04/22 01:06:28;;;;;;;;;;;;;;;5.95;100.00;100810.53;4925392;28;19969;-73
2023/04/22 01:08:54;;;;;;;;;;;;;;;5.99;100.00;100815.56;4936886;28;19922;-73
2023/04/22 01:11:19;;;;;;;;;;;;;;;5.98;100.00;100807.69;4936216;28;20432;-73
2023/04/22 01:13:44;;;;;;;;;;;;;;;5.97;100.00;100819.28;4951791;28;20407;-73
2023/04/22 01:16:10;;;;;;;;;;;;;;;5.84;100.00;100813.81;4949123;28;20016;-73
2023/04/22 01:18:36;;;;;;;;;;;;;;;5.71;100.00;100808.34;4949662;28;20050;-73
2023/04/22 01:21:01;;;;;;;;;;;;;;;5.72;100.00;100812.72;4955631;28;20715;-73
2023/04/22 01:23:26;;;;;;;;;;;;;;;5.75;100.00;100812.56;4954944;28;19929;-73
2023/04/22 01:25:51;;;;;;;;;;;;;;;5.75;100.00;100806.34;4939069;28;20341;-73
2023/04/22 01:28:17;;;;;;;;;;;;;;;5.77;100.00;100804.47;4931343;28;20357;-73
2023/04/22 01:30:42;;;;;;;;;;;;;;;5.78;100.00;100803.50;4951299;28;19992;-73
2023/04/22 01:33:10;;;;;;;;;;;;;;;5.80;100.00;100802.50;4955416;28;20016;-74
2023/04/22 01:35:36;;;;;;;;;;;;;;;5.79;100.00;100810.56;4952136;28;19922;-74
2023/04/22 01:38:02;;;;;;;;;;;;;;;5.74;100.00;100805.50;4934879;28;20274;-73
2023/04/22 01:40:27;;;;;;;;;;;;;;;5.73;100.00;100801.13;4948848;28;19957;-73
2023/04/22 01:42:52;;;;;;;;;;;;;;;5.74;100.00;100792.19;4935447;28;19929;-74
2023/04/22 01:45:17;;;;;;;;;;;;;;;5.73;100.00;100797.59;4951723;28;19929;-73
2023/04/22 01:47:43;;;;;;;;;;;;;;;5.65;100.00;100798.03;4957753;28;19918;-73
2023/04/22 01:50:08;;;;;;;;;;;;;;;5.48;100.00;100799.88;4954482;28;20463;-73
2023/04/22 01:52:34;;;;;;;;;;;;;;;5.38;100.00;100794.22;4950530;28;20247;-73
2023/04/22 01:55:00;;;;;;;;;;;;;;;5.43;100.00;100806.41;4953017;28;19933;-74
2023/04/22 01:57:25;;;;;;;;;;;;;;;5.42;100.00;100802.03;4935050;28;19932;-73
2023/04/22 01:59:50;;;;;;;;;;;;;;;5.38;100.00;100802.22;4936155;28;20632;-73
2023/04/22 02:02:15;;;;;;;;;;;;;;;5.49;100.00;100801.59;4952768;28;19958;-73
2023/04/22 02:04:40;;;;;;;;;;;;;;;5.55;100.00;100785.28;4944169;28;20047;-73
2023/04/22 02:07:06;;;;;;;;;;;;;;;5.61;100.00;100807.16;4958966;28;19926;-73
2023/04/22 02:09:31;;;;;;;;;;;;;;;5.56;100.00;100786.97;4959832;28;19922;-73
2023/04/22 02:11:57;;;;;;;;;;;;;;;5.65;100.00;100784.72;4941157;28;20275;-74
2023/04/22 02:14:22;;;;;;;;;;;;;;;5.76;100.00;100787.63;4943319;28;19961;-74
2023/04/22 02:16:47;;;;;;;;;;;;;;;5.80;100.00;100791.84;4962562;28;20618;-73
2023/04/22 02:19:12;;;;;;;;;;;;;;;5.89;100.00;100786.88;4952907;28;20328;-73
2023/04/22 02:21:38;;;;;;;;;;;;;;;5.92;100.00;100786.72;4939063;28;20388;-73
2023/04/22 02:24:03;;;;;;;;;;;;;;;5.88;100.00;100778.06;4959719;28;20479;-73
2023/04/22 02:26:29;;;;;;;;;;;;;;;5.89;100.00;100789.56;4937560;28;20492;-73
2023/04/22 02:28:54;;;;;;;;;;;;;;;5.98;100.00;100789.88;4959283;28;21772;-74
2023/04/22 02:31:20;;;;;;;;;;;;;;;6.06;100.00;100784.13;4941978;28;20001;-74
2023/04/22 02:33:45;;;;;;;;;;;;;;;6.04;100.00;100780.69;4957219;28;19922;-74
2023/04/22 02:36:10;;;;;;;;;;;;;;;6.04;100.00;100782.50;4940593;28;19922;-73
2023/04/22 02:38:36;;;;;;;;;;;;;;;6.00;100.00;100788.00;4923845;28;19969;-74
2023/04/22 02:41:01;;;;;;;;;;;;;;;6.17;100.00;100786.16;4951849;28;19922;-74
2023/04/22 02:43:27;;;;;;;;;;;;;;;6.26;100.00;100779.41;4955138;28;19969;-74
2023/04/22 02:45:52;;;;;;;;;;;;;;;6.34;100.00;100773.59;4951253;28;19929;-74
2023/04/22 02:48:17;;;;;;;;;;;;;;;6.38;100.00;100772.47;4952691;28;20396;-74
2023/04/22 02:50:42;;;;;;;;;;;;;;;6.45;100.00;100773.81;4943136;28;20020;-74
2023/04/22 02:53:08;;;;;;;;;;;;;;;6.50;100.00;100766.34;4951765;28;19941;-73
2023/04/22 02:55:33;;;;;;;;;;;;;;;6.57;100.00;100767.69;4937772;28;19925;-74
2023/04/22 02:57:58;;;;;;;;;;;;;;;6.62;100.00;100763.88;4931980;28;20174;-73
2023/04/22 03:00:23;;;;;;;;;;;;;;;6.68;100.00;100763.50;4950744;28;19922;-74
2023/04/22 03:02:49;;;;;;;;;;;;;;;6.68;100.00;100753.69;4939754;28;20008;-74
2023/04/22 03:05:14;;;;;;;;;;;;;;;6.73;100.00;100758.75;4953451;28;19922;-73
2023/04/22 03:07:40;;;;;;;;;;;;;;;6.73;100.00;100758.75;4956675;28;19973;-73
2023/04/22 03:10:07;;;;;;;;;;;;;;;6.77;100.00;100754.91;4937050;28;20008;-74
2023/04/22 03:12:33;;;;;;;;;;;;;;;6.83;100.00;100751.03;4953756;28;20022;-73
2023/04/22 03:14:58;;;;;;;;;;;;;;;6.81;100.00;100751.09;4957271;28;19982;-73
2023/04/22 03:17:24;;;;;;;;;;;;;;;6.77;100.00;100752.25;4954873;28;19967;-73
2023/04/22 03:19:50;;;;;;;;;;;;;;;6.75;100.00;100754.19;4954436;28;19957;-73
2023/04/22 03:22:15;;;;;;;;;;;;;;;6.66;100.00;100760.09;4953987;28;20024;-73
2023/04/22 03:24:40;;;;;;;;;;;;;;;6.59;100.00;100754.28;4949265;28;20481;-73
2023/04/22 03:27:05;;;;;;;;;;;;;;;6.58;100.00;100756.06;4953734;28;19932;-73
2023/04/22 03:29:31;;;;;;;;;;;;;;;6.66;100.00;100755.59;4952407;28;20353;-73
2023/04/22 03:31:56;;;;;;;;;;;;;;;6.71;100.00;100737.47;4939401;28;20265;-73
2023/04/22 03:34:22;;;;;;;;;;;;;;;6.78;100.00;100745.94;4935923;28;20424;-73
2023/04/22 03:36:47;;;;;;;;;;;;;;;6.80;100.00;100729.88;4953457;28;20254;-74
2023/04/22 03:39:12;;;;;;;;;;;;;;;6.89;100.00;100731.91;4932435;28;19950;-73
2023/04/22 03:41:37;;;;;;;;;;;;;;;6.77;100.00;100732.72;4933378;28;19926;-73
2023/04/22 03:44:02;;;;;;;;;;;;;;;6.82;100.00;100726.13;4957941;28;19922;-74
2023/04/22 03:46:28;;;;;;;;;;;;;;;6.91;100.00;100724.66;4953040;28;19941;-73
2023/04/22 03:48:53;;;;;;;;;;;;;;;6.96;100.00;100717.22;4955194;28;19922;-73
2023/04/22 03:51:18;;;;;;;;;;;;;;;6.97;100.00;100726.94;4948255;28;20037;-73
2023/04/22 03:53:43;;;;;;;;;;;;;;;6.99;100.00;100724.22;4946651;28;20293;-73
2023/04/22 03:56:09;;;;;;;;;;;;;;;7.03;100.00;100723.03;4937476;28;20309;-73
2023/04/22 03:58:34;;;;;;;;;;;;;;;7.04;100.00;100719.41;4931708;28;20061;-73
2023/04/22 04:00:59;;;;;;;;;;;;;;;7.11;100.00;100718.06;4947924;28;20389;-73
2023/04/22 04:03:25;;;;;;;;;;;;;;;7.16;100.00;100712.41;4951323;28;20013;-72
2023/04/22 04:05:50;;;;;;;;;;;;;;;7.17;100.00;100714.13;4951255;28;19922;-73
2023/04/22 04:08:15;;;;;;;;;;;;;;;7.14;100.00;100715.19;4934315;28;19925;-73
2023/04/22 04:10:41;;;;;;;;;;;;;;;7.15;100.00;100713.38;4950308;28;20161;-74
2023/04/22 04:13:06;;;;;;;;;;;;;;;7.10;100.00;100703.00;4916119;28;20374;-73
2023/04/22 04:15:31;;;;;;;;;;;;;;;7.13;100.00;100712.63;4940070;28;20423;-74
2023/04/22 04:18:00;;;;;;;;;;;;;;;7.04;100.00;100709.59;4923584;28;20442;-73
2023/04/22 04:20:25;;;;;;;;;;;;;;;7.01;100.00;100712.47;4952896;28;20092;-73
2023/04/22 04:22:50;;;;;;;;;;;;;;;6.96;100.00;100711.91;4954845;28;19921;-74
2023/04/22 04:25:17;;;;;;;;;;;;;;;6.95;100.00;100704.00;4954849;28;19922;-73
2023/04/22 04:27:42;;;;;;;;;;;;;;;6.95;100.00;100699.50;4952348;28;20286;-74
2023/04/22 04:30:08;;;;;;;;;;;;;;;6.95;100.00;100704.84;4951679;28;19973;-74
2023/04/22 04:32:34;;;;;;;;;;;;;;;6.97;100.00;100697.59;4953799;28;19921;-73
2023/04/22 04:35:00;;;;;;;;;;;;;;;7.03;100.00;100701.66;4953496;28;20340;-74
2023/04/22 04:37:26;;;;;;;;;;;;;;;7.01;100.00;100707.13;4954365;28;19922;-73
2023/04/22 04:39:51;;;;;;;;;;;;;;;6.89;100.00;100702.56;4953607;28;19925;-73
2023/04/22 04:42:17;;;;;;;;;;;;;;;6.83;100.00;100701.16;4934381;28;20445;-74
2023/04/22 04:44:42;;;;;;;;;;;;;;;6.84;100.00;100694.84;4936841;28;20395;-73
2023/04/22 04:47:07;;;;;;;;;;;;;;;6.82;100.00;100695.94;4938134;28;20182;-73
2023/04/22 04:49:38;;;;;;;;;;;;;;;6.81;100.00;100699.56;4934058;28;19965;-73
2023/04/22 04:52:04;;;;;;;;;;;;;;;6.85;100.00;100699.25;4936414;28;19933;-73
2023/04/22 04:54:29;;;;;;;;;;;;;;;6.84;100.00;100708.19;4940457;28;19926;-73
2023/04/22 04:56:56;;;;;;;;;;;;;;;6.85;100.00;100701.91;4951743;28;19921;-74
2023/04/22 04:59:21;;;;;;;;;;;;;;;6.89;100.00;100702.56;4952100;28;19929;-74
2023/04/22 05:01:46;;;;;;;;;;;;;;;6.93;100.00;100701.41;4933222;28;19922;-73
2023/04/22 05:04:11;;;;;;;;;;;;;;;6.93;100.00;100695.22;4944853;28;19919;-74
2023/04/22 05:06:36;;;;;;;;;;;;;;;7.01;100.00;100700.94;4936398;28;19954;-73
2023/04/22 05:09:02;;;;;;;;;;;;;;;7.05;100.00;100708.63;4950868;28;20029;-73
2023/04/22 05:11:27;;;;;;;;;;;;;;;7.11;100.00;100702.03;4952263;28;20333;-73
2023/04/22 05:13:52;;;;;;;;;;;;;;;7.16;100.00;100699.03;4929479;28;20258;-74
2023/04/22 05:16:17;;;;;;;;;;;;;;;7.22;100.00;100701.31;4929696;28;20063;-73
2023/04/22 05:18:43;;;;;;;;;;;;;;;7.27;100.00;100704.56;4949695;28;21564;-73
2023/04/22 05:21:08;;;;;;;;;;;;;;;7.27;100.00;100706.38;4933782;28;20365;-73
2023/04/22 05:23:33;;;;;;;;;;;;;;;7.26;100.00;100710.84;4937471;28;20419;-74
2023/04/22 05:25:58;;;;;;;;;;;;;;;7.32;100.00;100706.91;4935969;28;19949;-73
2023/04/22 05:28:24;;;;;;;;;;;;;;;7.37;100.00;100712.81;4949020;28;19965;-74
2023/04/22 05:30:49;;;;;;;;;;;;;;;7.41;100.00;100713.47;4947281;28;20054;-73
2023/04/22 05:33:14;;;;;;;;;;;;;;;7.46;100.00;100717.53;4954846;28;20384;-74
2023/04/22 05:35:39;;;;;;;;;;;;;;;7.55;100.00;100710.72;4954361;28;20373;-74
2023/04/22 05:38:05;;;;;;;;;;;;;;;7.63;100.00;100708.41;4957239;28;20024;-73
2023/04/22 05:40:30;;;;;;;;;;;;;;;7.69;100.00;100695.56;4957802;28;19922;-74
2023/04/22 05:42:56;;;;;;;;;;;;;;;7.69;100.00;100695.56;4953310;28;19922;-74
2023/04/22 05:45:21;;;;;;;;;;;;;;;7.71;100.00;100699.00;4937411;28;19969;-74
2023/04/22 05:47:46;;;;;;;;;;;;;;;7.75;100.00;100695.16;4936497;28;19954;-73
2023/04/22 05:50:11;;;;;;;;;;;;;;;7.80;100.00;100701.03;4939470;28;20037;-74
2023/04/22 05:52:36;;;;;;;;;;;;;;;7.89;100.00;100694.19;4940423;28;19921;-73
2023/04/22 05:55:02;;;;;;;;;;;;;;;8.02;100.00;100697.75;4954705;28;20298;-73
2023/04/22 05:57:27;;;;;;;;;;;;;;;8.09;100.00;100703.53;4920111;28;19928;-73
2023/04/22 05:59:52;;;;;;;;;;;;;;;8.11;100.00;100712.31;4937034;28;19925;-74
2023/04/22 06:02:17;;;;;;;;;;;;;;;8.14;100.00;100705.88;4935536;28;20352;-73
2023/04/22 06:04:42;;;;;;;;;;;;;;;8.15;100.00;100704.91;4955239;28;19917;-73
2023/04/22 06:07:08;;;;;;;;;;;;;;;8.19;100.00;100703.72;4937388;28;20363;-73
2023/04/22 06:09:33;;;;;;;;;;;;;;;8.16;100.00;100701.28;4936730;28;20363;-73
2023/04/22 06:11:58;;;;;;;;;;;;;;;8.29;100.00;100709.28;4937386;28;20491;-73
2023/04/22 06:14:23;;;;;;;;;;;;;;;8.30;100.00;100697.63;4951352;28;20384;-73
2023/04/22 06:16:52;;;;;;;;;;;;;;;8.36;100.00;100695.38;4954373;28;20352;-74
2023/04/22 06:19:18;;;;;;;;;;;;;;;8.30;100.00;100705.66;4952267;28;19930;-74
2023/04/22 06:21:43;;;;;;;;;;;;;;;8.32;100.00;100691.22;4961350;28;19932;-73
2023/04/22 06:24:09;;;;;;;;;;;;;;;8.44;100.00;100693.97;4940711;28;19926;-73
2023/04/22 06:26:35;;;;;;;;;;;;;;;8.58;100.00;100687.66;4946348;28;19965;-73
2023/04/22 06:29:01;;;;;;;;;;;;;;;8.81;100.00;100694.88;4954818;28;19930;-74
2023/04/22 06:31:27;;;;;;;;;;;;;;;8.83;100.00;100686.75;4952946;28;20535;-73
2023/04/22 06:33:52;;;;;;;;;;;;;;;8.98;100.00;100688.31;4949809;28;19922;-72
2023/04/22 06:36:17;;;;;;;;;;;;;;;9.12;100.00;100678.41;4954150;28;19926;-74
2023/04/22 06:38:42;;;;;;;;;;;;;;;9.25;100.00;100681.88;4935898;28;19930;-74
2023/04/22 06:41:07;;;;;;;;;;;;;;;9.32;100.00;100681.41;4950535;28;19934;-74
2023/04/22 06:43:33;;;;;;;;;;;;;;;9.48;100.00;100679.25;4955610;28;19922;-73
2023/04/22 06:45:58;;;;;;;;;;;;;;;9.67;100.00;100669.81;4953914;28;20334;-73
2023/04/22 06:48:23;;;;;;;;;;;;;;;9.86;100.00;100671.94;4932682;28;20266;-73
2023/04/22 06:50:48;;;;;;;;;;;;;;;10.05;100.00;100672.22;4951761;28;20296;-73
2023/04/22 06:53:13;;;;;;;;;;;;;;;10.20;100.00;100674.66;4957761;28;20364;-74
2023/04/22 06:55:39;;;;;;;;;;;;;;;10.21;100.00;100674.53;4954213;28;20265;-73
2023/04/22 06:58:04;;;;;;;;;;;;;;;10.70;100.00;100668.94;4950540;28;20380;-73
2023/04/22 07:00:29;;;;;;;;;;;;;;;10.63;100.00;100668.56;4949360;28;19969;-73
2023/04/22 07:02:54;;;;;;;;;;;;;;;10.58;100.00;100659.19;4952754;28;19970;-72
2023/04/22 07:05:20;;;;;;;;;;;;;;;10.96;100.00;100647.16;4953414;28;20084;-73
2023/04/22 07:07:45;;;;;;;;;;;;;;;11.02;100.00;100643.09;4938836;28;19926;-73
2023/04/22 07:10:11;;;;;;;;;;;;;;;11.34;100.00;100650.31;4953193;28;19929;-72
2023/04/22 07:12:36;;;;;;;;;;;;;;;11.55;100.00;100639.56;4952957;28;19922;-73
2023/04/22 07:15:01;;;;;;;;;;;;;;;11.71;100.00;100636.41;4953018;28;19925;-73
2023/04/22 07:17:27;;;;;;;;;;;;;;;11.72;100.00;100634.59;4960365;28;20475;-73
2023/04/22 07:19:52;;;;;;;;;;;;;;;11.92;100.00;100635.56;4953741;28;20466;-73
2023/04/22 07:22:17;;;;;;;;;;;;;;;11.93;100.00;100637.22;4951274;28;20472;-73
2023/04/22 07:24:43;;;;;;;;;;;;;;;11.93;100.00;100637.22;4944943;28;20387;-73
2023/04/22 07:27:08;;;;;;;;;;;;;;;12.18;100.00;100630.59;4937755;28;20404;-73
2023/04/22 07:29:33;;;;;;;;;;;;;;;12.66;100.00;100626.38;4938208;28;20470;-73
2023/04/22 07:31:58;;;;;;;;;;;;;;;12.90;100.00;100625.13;4931514;28;20412;-73
2023/04/22 07:34:23;;;;;;;;;;;;;;;12.94;100.00;100636.47;4958220;28;20016;-74
2023/04/22 07:36:52;;;;;;;;;;;;;;;12.57;100.00;100638.81;4957789;28;20048;-73
2023/04/22 07:39:17;;;;;;;;;;;;;;;12.50;100.00;100628.72;4932964;28;19922;-70
2023/04/22 07:41:42;;;;;;;;;;;;;;;12.47;100.00;100626.28;4951525;28;20381;-73
2023/04/22 07:44:09;;;;;;;;;;;;;;;12.62;100.00;100637.53;4955867;28;20037;-74
2023/04/22 07:46:34;;;;;;;;;;;;;;;12.66;100.00;100629.06;4952371;28;19929;-74
2023/04/22 07:48:59;;;;;;;;;;;;;;;12.85;100.00;100627.38;4943804;28;19925;-73
2023/04/22 07:51:25;;;;;;;;;;;;;;;13.06;100.00;100629.97;4959070;28;20025;-73
2023/04/22 07:53:50;;;;;;;;;;;;;;;13.18;100.00;100634.22;4966108;28;19918;-71
2023/04/22 07:56:15;;;;;;;;;;;;;;;13.09;100.00;100631.50;4963893;28;20296;-73
2023/04/22 07:58:41;;;;;;;;;;;;;;;12.99;100.00;100637.75;4969128;28;20281;-73
2023/04/22 08:01:06;;;;;;;;;;;;;;;13.13;100.00;100633.78;4943859;28;19922;-74
2023/04/22 08:03:31;;;;;;;;;;;;;;;13.16;100.00;100638.06;4957239;28;19922;-72
2023/04/22 08:05:57;;;;;;;;;;;;;;;13.36;100.00;100638.91;4971307;28;20712;-73
2023/04/22 08:08:22;;;;;;;;;;;;;;;13.47;100.00;100641.47;4969015;28;20440;-72
2023/04/22 08:10:48;;;;;;;;;;;;;;;13.54;100.00;100624.72;4965436;28;19926;-74
2023/04/22 08:13:13;;;;;;;;;;;;;;;13.78;100.00;100626.94;4968980;28;20430;-73
2023/04/22 08:15:38;;;;;;;;;;;;;;;14.15;100.00;100603.69;4951120;28;20683;-74
2023/04/22 08:18:04;;;;;;;;;;;;;;;14.21;100.00;100598.53;4951721;28;20338;-73
2023/04/22 08:20:29;;;;;;;;;;;;;;;14.28;100.00;100590.66;4963917;28;19952;-74
2023/04/22 08:22:56;;;;;;;;;;;;;;;14.51;100.00;100599.22;4963626;28;19929;-74
2023/04/22 08:25:22;;;;;;;;;;;;;;;14.39;100.00;100592.31;4949420;28;20467;-71
2023/04/22 08:27:48;;;;;;;;;;;;;;;14.75;100.00;100587.00;4967048;28;19929;-73
2023/04/22 08:30:13;;;;;;;;;;;;;;;14.73;100.00;100589.00;4965429;28;19957;-71
2023/04/22 08:32:39;;;;;;;;;;;;;;;14.92;100.00;100584.47;4961029;28;20052;-74
2023/04/22 08:35:04;;;;;;;;;;;;;;;14.85;100.00;100587.78;4947585;28;20024;-71
2023/04/22 08:37:29;;;;;;;;;;;;;;;15.05;100.00;100579.53;4963634;28;20020;-73
2023/04/22 08:39:55;;;;;;;;;;;;;;;15.18;100.00;100579.13;4961576;28;19918;-75
2023/04/22 08:42:21;;;;;;;;;;;;;;;14.84;100.00;100590.66;4949329;28;20025;-74
2023/04/22 08:44:47;;;;;;;;;;;;;;;15.03;100.00;100589.66;4962497;28;19968;-74
2023/04/22 08:47:13;;;;;;;;;;;;;;;14.99;100.00;100585.56;4962927;28;20405;-73
2023/04/22 08:49:38;;;;;;;;;;;;;;;15.66;100.00;100571.50;4948868;28;19918;-74
2023/04/22 08:52:03;;;;;;;;;;;;;;;16.06;100.00;100571.94;4965047;28;19933;-73
2023/04/22 08:54:29;;;;;;;;;;;;;;;15.72;100.00;100565.47;4966967;28;20000;-73
2023/04/22 08:56:54;;;;;;;;;;;;;;;15.37;100.00;100567.25;4945541;28;20413;-72
2023/04/22 08:59:19;;;;;;;;;;;;;;;15.21;100.00;100570.72;4948681;28;19926;-70
2023/04/22 09:01:44;;;;;;;;;;;;;;;15.49;100.00;100557.06;4944256;28;19918;-74
2023/04/22 09:04:10;;;;;;;;;;;;;;;15.30;100.00;100561.63;4946994;28;19922;-73
2023/04/22 09:06:36;;;;;;;;;;;;;;;15.72;100.00;100546.53;4948741;28;20380;-74
2023/04/22 09:09:01;;;;;;;;;;;;;;;15.78;100.00;100553.16;4949896;28;19925;-72
2023/04/22 09:11:27;;;;;;;;;;;;;;;16.21;100.00;100547.78;4944609;28;19934;-74
2023/04/22 09:13:56;;;;;;;;;;;;;;;16.15;100.00;100546.59;4963212;28;20020;-74
2023/04/22 09:16:21;;;;;;;;;;;;;;;16.38;100.00;100542.44;4949487;28;19961;-74
2023/04/22 09:18:46;;;;;;;;;;;;;;;16.40;100.00;100537.72;4966281;28;19945;-73
2023/04/22 09:21:11;;;;;;;;;;;;;;;16.52;100.00;100525.53;4962412;28;19918;-73
2023/04/22 09:23:47;;;;;;;;;;;;;;;16.73;100.00;100526.91;4949776;28;20373;-75
2023/04/22 09:26:13;;;;;;;;;;;;;;;16.98;100.00;100522.41;4950724;28;19933;-71
2023/04/22 09:28:46;;;;;;;;;;;;;;;17.00;100.00;100512.22;4962676;28;19921;-71
2023/04/22 09:31:12;;;;;;;;;;;;;;;17.11;100.00;100521.88;4942494;28;20770;-74
2023/04/22 09:33:37;;;;;;;;;;;;;;;16.75;100.00;100524.88;4952850;28;21200;-71
2023/04/22 09:36:07;;;;;;;;;;;;;;;16.79;100.00;100526.25;4941257;28;19925;-69
2023/04/22 09:38:32;;;;;;;;;;;;;;;16.77;100.00;100525.56;4955302;28;19957;-71
2023/04/22 09:40:57;;;;;;;;;;;;;;;17.10;100.00;100520.19;4937441;28;20334;-73
2023/04/22 09:43:23;;;;;;;;;;;;;;;17.14;100.00;100526.97;4953090;28;19922;-75
2023/04/22 09:45:48;;;;;;;;;;;;;;;17.15;100.00;100517.81;4938851;28;19960;-73
2023/04/22 09:48:14;;;;;;;;;;;;;;;17.12;100.00;100515.44;4949189;28;20410;-74
2023/04/22 09:50:42;;;;;;;;;;;;;;;17.53;100.00;100522.69;4924623;28;20360;-74
2023/04/22 09:53:08;;;;;;;;;;;;;;;17.29;100.00;100520.84;4954953;28;20009;-79
2023/04/22 09:55:35;;;;;;;;;;;;;;;17.14;100.00;100518.84;4954223;28;19921;-74
2023/04/22 09:58:04;;;;;;;;;;;;;;;17.15;100.00;100523.25;4951874;28;19929;-74
2023/04/22 10:00:29;;;;;;;;;;;;;;;17.31;100.00;100511.53;4955241;28;20062;-74
2023/04/22 10:02:55;;;;;;;;;;;;;;;17.78;100.00;100498.16;4954089;28;19958;-71
2023/04/22 10:05:20;;;;;;;;;;;;;;;18.31;100.00;100503.88;4936662;28;19922;-72
2023/04/22 10:07:45;;;;;;;;;;;;;;;18.44;100.00;100511.44;4940018;28;19922;-73
2023/04/22 10:10:11;;;;;;;;;;;;;;;18.57;100.00;100519.88;4934156;28;19957;-74
2023/04/22 10:12:36;;;;;;;;;;;;;;;18.54;98.49;100516.69;4958405;28;20144;-75
2023/04/22 10:15:02;;;;;;;;;;;;;;;18.74;100.00;100519.75;4936727;28;19922;-75
2023/04/22 10:17:28;;;;;;;;;;;;;;;19.08;100.00;100514.91;4955235;28;19922;-77
2023/04/22 10:19:55;;;;;;;;;;;;;;;19.04;95.04;100503.56;4941194;28;20404;-73
2023/04/22 10:22:20;;;;;;;;;;;;;;;19.07;94.40;100519.53;4956305;28;19930;-74
2023/04/22 10:24:45;;;;;;;;;;;;;;;18.42;94.03;100508.06;4944980;28;19968;-77
2023/04/22 10:27:11;;;;;;;;;;;;;;;18.31;92.73;100519.34;4955810;28;19954;-76
2023/04/22 10:29:41;;;;;;;;;;;;;;;18.36;95.24;100525.09;4941170;28;19922;-72
2023/04/22 10:32:09;;;;;;;;;;;;;;;18.59;90.85;100525.13;4941559;28;20049;-75
2023/04/22 10:34:34;;;;;;;;;;;;;;;18.79;90.55;100521.94;4955421;28;20064;-79
2023/04/22 10:37:02;;;;;;;;;;;;;;;18.67;88.44;100514.19;4941566;28;19930;-77
2023/04/22 10:39:28;;;;;;;;;;;;;;;19.20;86.35;100499.00;4940996;28;19928;-74
2023/04/22 10:41:55;;;;;;;;;;;;;;;18.95;87.99;100510.94;4951738;28;19921;-75
2023/04/22 10:44:21;;;;;;;;;;;;;;;18.53;94.46;100532.13;4953820;28;19926;-75
2023/04/22 10:46:49;;;;;;;;;;;;;;;18.12;89.28;100535.91;4948082;28;19922;-79
2023/04/22 10:49:21;;;;;;;;;;;;;;;17.74;89.21;100540.25;4964104;28;19957;-76
2023/04/22 10:51:50;;;;;;;;;;;;;;;17.53;84.17;100537.06;4944088;28;19926;-75
2023/04/22 10:54:27;;;;;;;;;;;;;;;17.62;89.37;100529.75;4944090;28;19929;-76
2023/04/22 10:57:02;;;;;;;;;;;;;;;17.90;93.78;100528.50;4951747;28;20007;-73
2023/04/22 10:59:27;;;;;;;;;;;;;;;18.37;91.73;100524.91;4952279;28;20026;-74
2023/04/22 11:01:53;;;;;;;;;;;;;;;18.86;91.33;100520.16;4946140;28;19930;-78
2023/04/22 11:04:19;;;;;;;;;;;;;;;18.49;88.28;100533.50;4948547;28;19925;-78
2023/04/22 11:06:44;;;;;;;;;;;;;;;18.39;88.30;100522.03;4938398;28;20394;-74
2023/04/22 11:09:11;;;;;;;;;;;;;;;18.40;88.25;100518.28;4954593;28;20463;-73
2023/04/22 11:11:36;;;;;;;;;;;;;;;18.65;86.60;100504.53;4960095;28;19973;-76
2023/04/22 11:14:02;;;;;;;;;;;;;;;19.30;86.72;100510.47;4947493;28;19926;-73
2023/04/22 11:16:27;;;;;;;;;;;;;;;19.20;88.53;100499.00;4956796;28;19926;-78
2023/04/22 11:18:54;;;;;;;;;;;;;;;18.64;84.07;100498.22;4941703;28;19977;-73
2023/04/22 11:21:19;;;;;;;;;;;;;;;18.64;85.06;100495.50;4941684;28;20495;-71
2023/04/22 11:23:51;;;;;;;;;;;;;;;18.23;86.87;100507.50;4960613;28;19932;-71
2023/04/22 11:26:16;;;;;;;;;;;;;;;17.99;91.85;100506.59;4944293;28;20525;-73
2023/04/22 11:28:47;;;;;;;;;;;;;;;18.04;92.31;100506.06;4956315;28;20071;-72
2023/04/22 11:31:13;;;;;;;;;;;;;;;17.91;93.15;100513.91;4938963;28;20037;-70
2023/04/22 11:33:39;;;;;;;;;;;;;;;17.40;93.81;100506.94;4941778;28;20360;-72
2023/04/22 11:36:04;;;;;;;;;;;;;;;17.07;100.00;100505.13;4941331;28;20012;-71
2023/04/22 11:38:30;;;;;;;;;;;;;;;16.92;96.85;100518.47;4971415;28;20212;-70
2023/04/22 11:40:57;;;;;;;;;;;;;;;16.81;100.00;100518.78;4967343;28;19945;-70
2023/04/22 11:43:22;;;;;;;;;;;;;;;16.91;94.75;100529.47;4965258;28;21001;-71
2023/04/22 11:45:47;;;;;;;;;;;;;;;16.79;98.33;100512.69;4967336;28;19922;-71
2023/04/22 11:48:13;;;;;;;;;;;;;;;16.63;100.00;100514.38;4962675;28;19925;-71
2023/04/22 11:50:39;;;;;;;;;;;;;;;16.53;100.00;100502.00;4964377;28;20292;-71
2023/04/22 11:53:22;;;;;;;;;;;;;;;16.49;100.00;100512.31;4939395;28;20421;-71
2023/04/22 11:55:49;;;;;;;;;;;;;;;16.51;100.00;100513.00;4945642;28;19953;-71
2023/04/22 11:58:33;;;;;;;;;;;;;;;16.27;100.00;100511.09;4959770;28;19945;-71
2023/04/22 12:00:58;;;;;;;;;;;;;;;16.31;100.00;100509.72;4942122;28;19965;-71
2023/04/22 12:03:27;;;;;;;;;;;;;;;16.36;100.00;100499.25;4938883;28;20409;-71
2023/04/22 12:05:53;;;;;;;;;;;;;;;16.23;100.00;100512.44;4961629;28;20669;-71
2023/04/22 12:08:19;;;;;;;;;;;;;;;16.33;100.00;100513.97;4954560;28;19922;-71
2023/04/22 12:10:46;;;;;;;;;;;;;;;16.44;100.00;100512.81;4951960;28;19938;-71
2023/04/22 12:13:20;;;;;;;;;;;;;;;16.45;100.00;100511.81;4958400;28;20319;-71
2023/04/22 12:15:46;;;;;;;;;;;;;;;16.43;100.00;100507.53;4962293;28;19922;-72
2023/04/22 12:18:11;;;;;;;;;;;;;;;16.50;100.00;100511.28;4950039;28;20395;-72
2023/04/22 12:20:38;;;;;;;;;;;;;;;16.30;100.00;100489.94;4960214;28;19981;-72
2023/04/22 12:23:03;;;;;;;;;;;;;;;16.37;100.00;100524.50;4945420;28;19933;-72
2023/04/22 12:25:29;;;;;;;;;;;;;;;16.44;100.00;100517.38;4957848;28;19921;-72